Time;durP1;ratioP1;P1;durP2;ratioP2;P2;SDS_P1;SDS_P2;PMS_P1;PMS_P2;Temp;Humidity;BMP_temperature;BMP_pressure;BME280_temperature;BME280_humidity;BME280_pressure;Samples;Min_cycle;Max_cycle;Signal;HPM_P1;HPM_P2
2022/10/04 00:01:11;;;;;;;34.85;23.73;;;;;;;13.68;87.14;101748.88;6251245;22;20038;-62
2022/10/04 00:03:52;;;;;;;37.17;23.42;;;;;;;13.81;88.76;101756.34;6278877;22;20016;-62
2022/10/04 00:06:22;;;;;;;33.70;23.50;;;;;;;13.68;88.83;101762.72;6252303;22;20026;-61
2022/10/04 00:08:57;;;;;;;38.00;23.67;;;;;;;13.84;89.17;101758.50;6251767;22;20023;-62
2022/10/04 00:11:29;;;;;;;35.75;23.02;;;;;;;13.88;89.57;101756.75;6252429;22;20016;-62
2022/10/04 00:13:59;;;;;;;35.70;22.70;;;;;;;13.86;89.04;101756.25;6227288;22;20019;-62
2022/10/04 00:16:32;;;;;;;34.28;22.77;;;;;;;13.86;88.94;101761.78;6251999;22;20027;-62
2022/10/04 00:19:20;;;;;;;34.40;22.27;;;;;;;13.89;89.16;101750.91;6279072;22;20019;-61
2022/10/04 00:22:11;;;;;;;34.15;22.33;;;;;;;13.93;88.48;101751.91;6252816;22;20016;-61
2022/10/04 00:25:16;;;;;;;31.95;20.77;;;;;;;13.92;88.16;101741.97;6278817;22;20023;-62
2022/10/04 00:28:23;;;;;;;32.10;22.10;;;;;;;13.82;88.41;101744.97;6252807;22;20019;-62
2022/10/04 00:31:14;;;;;;;35.25;22.40;;;;;;;13.76;88.35;101750.91;6252821;22;20016;-62
2022/10/04 00:33:50;;;;;;;29.58;20.13;;;;;;;13.76;88.28;101751.72;6275206;22;20269;-62
2022/10/04 00:36:24;;;;;;;32.53;21.08;;;;;;;13.67;87.50;101752.78;6278640;22;20019;-62
2022/10/04 00:39:06;;;;;;;31.58;20.98;;;;;;;13.66;89.32;101753.88;6252205;22;20019;-61
2022/10/04 00:41:57;;;;;;;33.35;21.00;;;;;;;13.68;89.00;101749.69;6279319;22;20030;-61
2022/10/04 00:44:54;;;;;;;29.95;20.60;;;;;;;13.67;89.44;101741.69;6251905;22;20018;-62
2022/10/04 00:47:43;;;;;;;32.03;21.00;;;;;;;13.82;89.28;101747.72;6251931;22;20019;-64
2022/10/04 00:50:17;;;;;;;29.60;20.80;;;;;;;13.72;88.79;101752.66;6251980;22;20030;-64
2022/10/04 00:52:49;;;;;;;33.78;20.90;;;;;;;13.62;88.45;101742.59;6251651;22;20331;-64
2022/10/04 00:55:38;;;;;;;31.08;20.42;;;;;;;13.68;89.31;101741.38;6252033;22;20023;-64
2022/10/04 00:58:22;;;;;;;29.83;19.98;;;;;;;13.69;89.17;101742.19;6229869;22;20015;-64
2022/10/04 01:00:51;;;;;;;29.58;20.08;;;;;;;13.67;89.89;101734.19;6251361;22;20015;-63
2022/10/04 01:03:31;;;;;;;28.98;19.58;;;;;;;13.60;89.22;101733.00;6252226;22;20030;-62
2022/10/04 01:06:00;;;;;;;;;;;;;;;13.60;89.76;101733.00;6252801;22;20023;-63
2022/10/04 01:08:34;;;;;;;30.45;20.48;;;;;;;13.63;90.57;101727.66;6226018;22;19915;-62
2022/10/04 01:11:18;;;;;;;29.20;19.25;;;;;;;13.75;90.48;101732.66;6251576;22;20022;-63
2022/10/04 01:13:57;;;;;;;32.45;20.45;;;;;;;13.73;89.83;101724.66;6226881;22;20014;-63
2022/10/04 01:16:26;;;;;;;28.23;19.48;;;;;;;13.68;89.46;101721.19;6226775;22;20030;-63
2022/10/04 01:18:55;;;;;;;29.43;19.93;;;;;;;13.72;89.67;101716.66;6251866;22;20019;-63
2022/10/04 01:21:26;;;;;;;27.55;19.42;;;;;;;13.74;90.07;101711.66;6277640;22;20024;-63
2022/10/04 01:23:56;;;;;;;33.58;19.58;;;;;;;13.84;90.27;101705.88;6250526;22;20012;-63
2022/10/04 01:26:31;;;;;;;26.63;18.55;;;;;;;13.73;89.71;101708.03;6278299;22;20019;-63
2022/10/04 01:29:20;;;;;;;32.55;19.77;;;;;;;13.65;89.89;101703.22;6278907;22;20019;-63
2022/10/04 01:31:49;;;;;;;26.73;20.02;;;;;;;13.73;90.54;101690.59;6258170;22;20028;-63
2022/10/04 01:34:21;;;;;;;33.50;20.87;;;;;;;13.61;90.42;101695.84;6251600;22;20011;-62
2022/10/04 01:36:51;;;;;;;28.73;19.58;;;;;;;13.61;90.30;101698.63;6250981;22;20020;-62
2022/10/04 01:39:21;;;;;;;30.30;20.17;;;;;;;13.54;90.81;101696.28;6250240;22;20026;-62
2022/10/04 01:42:03;;;;;;;31.23;20.80;;;;;;;13.65;91.72;101697.69;6277688;22;20016;-63
2022/10/04 01:44:45;;;;;;;29.88;19.70;;;;;;;13.71;91.36;101696.47;6278134;22;20012;-63
2022/10/04 01:47:17;;;;;;;28.30;18.95;;;;;;;13.66;90.13;101685.50;6278100;22;20020;-63
2022/10/04 01:49:45;;;;;;;27.98;19.35;;;;;;;13.49;89.42;101688.09;6252097;22;20035;-63
2022/10/04 01:52:17;;;;;;;27.15;18.98;;;;;;;13.65;91.03;101678.31;6277614;22;20024;-63
2022/10/04 01:54:48;;;;;;;27.80;19.02;;;;;;;13.72;91.14;101680.69;6251439;22;20367;-63
2022/10/04 01:57:18;;;;;;;28.48;18.88;;;;;;;13.67;89.57;101678.03;6276515;22;20030;-63
2022/10/04 01:59:56;;;;;;;26.63;18.70;;;;;;;13.15;88.26;101680.22;6251488;22;20074;-63
2022/10/04 02:02:34;;;;;;;29.42;18.60;;;;;;;13.30;90.42;101677.13;6226426;22;20015;-63
2022/10/04 02:05:05;;;;;;;28.30;19.30;;;;;;;13.44;92.44;101683.47;6278680;22;20026;-63
2022/10/04 02:07:33;;;;;;;28.27;18.48;;;;;;;13.48;90.08;101669.81;6277983;22;20019;-63
2022/10/04 02:10:03;;;;;;;25.50;17.70;;;;;;;13.49;90.20;101669.50;6250892;22;20015;-64
2022/10/04 02:12:32;;;;;;;30.00;18.60;;;;;;;13.55;90.23;101654.44;6251654;22;20278;-64
2022/10/04 02:15:02;;;;;;;25.23;17.65;;;;;;;13.33;90.08;101657.16;6250938;22;20012;-63
2022/10/04 02:17:32;;;;;;;29.97;18.80;;;;;;;13.13;89.51;101654.78;6250680;22;20419;-63
2022/10/04 02:20:00;;;;;;;;;;;;;;;13.16;88.87;101650.59;6225292;22;20019;-64
2022/10/04 02:22:27;;;;;;;25.85;18.65;;;;;;;13.18;89.63;101640.84;6278092;22;19938;-64
2022/10/04 02:24:55;;;;;;;30.45;19.48;;;;;;;13.15;91.30;101644.25;6249935;22;20054;-63
2022/10/04 02:27:30;;;;;;;27.45;18.80;;;;;;;13.06;90.34;101635.03;6277465;22;20289;-63
2022/10/04 02:30:03;;;;;;;28.70;18.67;;;;;;;13.13;91.64;101632.66;6252526;22;20019;-65
2022/10/04 02:35:18;;;;;;;27.63;19.02;;;;;;;12.80;89.20;101631.09;6278009;22;20118;-64
2022/10/04 02:37:48;;;;;;;33.40;19.63;;;;;;;12.70;88.66;101628.53;6250744;22;20034;-64
2022/10/04 02:40:16;;;;;;;;;;;;;;;12.89;93.97;101631.19;6250688;22;20039;-63
2022/10/04 02:42:59;;;;;;;25.42;18.42;;;;;;;13.21;95.05;101631.13;6224633;22;19915;-63
2022/10/04 02:45:39;;;;;;;31.42;18.45;;;;;;;13.44;94.02;101630.88;6224354;22;20020;-63
2022/10/04 02:48:20;;;;;;;28.27;18.77;;;;;;;13.12;90.93;101628.28;6277348;22;20020;-63
2022/10/04 02:50:50;;;;;;;31.10;19.10;;;;;;;13.02;91.25;101630.44;6275647;22;20024;-63
2022/10/04 02:53:25;;;;;;;32.75;18.73;;;;;;;13.15;92.99;101626.81;6250844;22;20019;-63
2022/10/04 02:55:56;;;;;;;27.08;18.30;;;;;;;13.39;93.36;101627.41;6250813;22;20026;-63
2022/10/04 02:58:24;;;;;;;28.73;17.38;;;;;;;13.54;93.21;101618.78;6225000;22;20085;-63
2022/10/04 03:00:58;;;;;;;27.27;18.70;;;;;;;13.23;90.96;101623.34;6250579;22;20358;-64
2022/10/04 03:03:38;;;;;;;31.77;18.63;;;;;;;13.32;92.51;101619.53;6278302;22;20016;-64
2022/10/04 03:06:09;;;;;;;25.75;18.48;;;;;;;13.24;91.11;101624.97;6251185;22;20328;-64
2022/10/04 03:08:36;;;;;;;30.33;18.13;;;;;;;13.30;91.99;101620.97;6277319;22;20027;-62
2022/10/04 03:11:04;;;;;;;32.42;18.27;;;;;;;13.10;89.81;101619.47;6250740;22;20320;-61
2022/10/04 03:13:31;;;;;;;26.33;19.40;;;;;;;13.14;90.99;101623.25;6278530;22;20015;-62
2022/10/04 03:15:59;;;;;;;26.52;19.27;;;;;;;13.02;91.46;101620.16;6277229;22;20015;-61
2022/10/04 03:18:28;;;;;;;30.67;20.33;;;;;;;13.04;91.52;101615.16;6278286;22;20023;-61
2022/10/04 03:20:56;;;;;;;27.23;19.08;;;;;;;12.97;91.31;101611.94;6250922;22;20112;-62
2022/10/04 03:23:23;;;;;;;26.00;19.23;;;;;;;12.67;88.68;101607.03;6249773;22;20024;-61
2022/10/04 03:25:52;;;;;;;32.20;20.15;;;;;;;12.76;91.31;101604.38;6249569;22;20420;-61
2022/10/04 03:28:19;;;;;;;29.75;19.45;;;;;;;12.91;92.81;101599.34;6225559;22;20030;-61
2022/10/04 03:30:50;;;;;;;30.90;20.17;;;;;;;12.95;92.32;101594.88;6225800;22;20016;-61
2022/10/04 03:33:22;;;;;;;29.63;19.33;;;;;;;13.07;92.67;101599.91;6251440;22;20026;-61
2022/10/04 03:35:52;;;;;;;27.55;19.38;;;;;;;12.99;92.81;101590.34;6224750;22;20435;-61
2022/10/04 03:38:20;;;;;;;27.52;18.23;;;;;;;13.07;92.58;101583.31;6250381;22;20388;-62
2022/10/04 03:40:55;;;;;;;29.05;19.30;;;;;;;13.04;92.88;101581.16;6277517;22;20027;-66
2022/10/04 03:43:30;;;;;;;28.55;18.70;;;;;;;13.13;92.68;101577.34;6251217;22;20026;-64
2022/10/04 03:45:59;;;;;;;32.45;18.55;;;;;;;12.81;91.56;101577.47;6250421;22;20030;-64
2022/10/04 03:48:34;;;;;;;30.27;18.90;;;;;;;12.99;92.51;101570.19;6250094;22;20034;-64
2022/10/04 03:51:04;;;;;;;31.00;19.13;;;;;;;12.83;90.23;101579.91;6278058;22;20246;-64
2022/10/04 03:53:41;;;;;;;27.77;18.75;;;;;;;12.78;91.56;101580.00;6224481;22;20015;-63
2022/10/04 03:56:18;;;;;;;25.55;19.08;;;;;;;12.83;94.35;101577.94;6276321;22;20022;-63
2022/10/04 03:58:48;;;;;;;27.77;18.27;;;;;;;12.99;94.08;101579.28;6251322;22;20355;-63
2022/10/04 04:01:33;;;;;;;26.67;18.38;;;;;;;13.08;93.04;101571.94;6249435;22;20455;-63
2022/10/04 04:04:22;;;;;;;28.45;19.48;;;;;;;13.03;91.29;101574.81;6277366;22;20022;-64
2022/10/04 04:07:02;;;;;;;28.23;18.58;;;;;;;12.95;92.43;101574.69;6277361;22;20031;-67
2022/10/04 04:09:44;;;;;;;29.15;18.70;;;;;;;13.06;92.88;101565.03;6251152;22;20012;-63
2022/10/04 04:12:26;;;;;;;30.08;19.55;;;;;;;12.85;91.17;101584.00;6250193;22;20020;-61
2022/10/04 04:14:54;;;;;;;27.95;18.60;;;;;;;12.63;89.86;101585.81;6227328;22;20008;-61
2022/10/04 04:17:41;;;;;;;31.98;19.73;;;;;;;12.33;88.77;101585.28;6250643;22;20022;-62
2022/10/04 04:20:19;;;;;;;32.63;19.63;;;;;;;12.39;92.33;101592.38;6277674;22;20019;-61
2022/10/04 04:22:55;;;;;;;28.20;18.88;;;;;;;12.43;91.66;101598.06;6277531;22;20020;-62
2022/10/04 04:25:23;;;;;;;28.98;19.17;;;;;;;12.61;92.56;101602.72;6249974;22;20012;-61
2022/10/04 04:27:55;;;;;;;26.23;19.50;;;;;;;12.80;94.48;101594.31;6276639;22;20024;-62
2022/10/04 04:30:22;;;;;;;32.85;19.35;;;;;;;12.87;93.87;101605.78;6250496;22;20046;-61
2022/10/04 04:32:51;;;;;;;28.40;19.55;;;;;;;12.76;91.65;101607.94;6250619;22;20019;-64
2022/10/04 04:35:25;;;;;;;30.00;19.05;;;;;;;12.78;91.75;101615.94;6276785;22;20012;-63
2022/10/04 04:38:14;;;;;;;33.72;19.67;;;;;;;12.75;91.97;101614.59;6250232;22;20019;-63
2022/10/04 04:40:41;;;;;;;27.55;19.40;;;;;;;12.75;92.57;101602.72;6249902;22;20348;-61
2022/10/04 04:43:13;;;;;;;29.77;19.27;;;;;;;12.66;92.53;101601.81;6250407;22;20348;-62
2022/10/04 04:45:41;;;;;;;30.50;18.77;;;;;;;12.87;93.54;101608.56;6250831;22;20015;-60
2022/10/04 04:48:12;;;;;;;28.70;19.17;;;;;;;12.90;93.69;101599.66;6252191;22;20016;-61
2022/10/04 04:50:40;;;;;;;27.48;19.92;;;;;;;12.87;92.41;101614.09;6278782;22;20019;-61
2022/10/04 04:53:08;;;;;;;27.00;18.00;;;;;;;12.93;92.91;101604.56;6252379;22;20022;-61
2022/10/04 04:55:43;;;;;;;28.27;19.20;;;;;;;12.93;92.49;101610.09;6250338;22;20030;-61
2022/10/04 04:58:34;;;;;;;29.90;19.42;;;;;;;12.92;93.22;101598.22;6257136;22;20352;-64
2022/10/04 05:01:18;;;;;;;27.48;18.92;;;;;;;12.94;91.64;101608.97;6225838;22;20049;-63
2022/10/04 05:04:07;;;;;;;30.20;18.48;;;;;;;13.02;92.36;101606.34;6251913;22;20038;-64
2022/10/04 05:06:36;;;;;;;26.40;18.25;;;;;;;12.93;90.91;101601.81;6279409;22;20022;-64
2022/10/04 05:09:04;;;;;;;31.13;18.73;;;;;;;12.91;91.09;101607.66;6251976;22;20020;-64
2022/10/04 05:11:36;;;;;;;31.33;19.48;;;;;;;12.60;89.26;101609.38;6250157;22;20123;-65
2022/10/04 05:14:11;;;;;;;27.20;18.73;;;;;;;12.68;92.26;101605.91;6278960;22;20015;-64
2022/10/04 05:16:56;;;;;;;25.95;18.30;;;;;;;12.85;93.47;101608.88;6251818;22;20015;-64
2022/10/04 05:19:30;;;;;;;30.65;17.38;;;;;;;12.86;91.97;101623.53;6251064;22;20022;-65
2022/10/04 05:21:59;;;;;;;31.95;19.10;;;;;;;12.81;92.92;101607.88;6226312;22;20020;-63
2022/10/04 05:24:32;;;;;;;26.63;17.55;;;;;;;12.88;92.51;101611.03;6251426;22;20019;-64
2022/10/04 05:27:05;;;;;;;31.75;18.33;;;;;;;12.98;92.83;101616.38;6236080;22;20467;-64
2022/10/04 05:29:37;;;;;;;27.45;17.85;;;;;;;12.91;92.41;101617.88;6252288;22;20011;-64
2022/10/04 05:32:32;;;;;;;26.13;17.52;;;;;;;13.07;93.32;101605.44;6277536;22;20031;-63
2022/10/04 05:35:00;;;;;;;29.85;18.15;;;;;;;13.08;92.51;101601.53;6249531;22;20012;-63
2022/10/04 05:37:49;;;;;;;23.00;17.65;;;;;;;13.01;91.99;101590.84;6225122;22;20024;-64
2022/10/04 05:40:46;;;;;;;27.20;18.08;;;;;;;12.99;92.48;101601.41;6277187;22;20020;-66
2022/10/04 05:43:39;;;;;;;28.05;19.88;;;;;;;13.03;92.78;101596.94;6259306;22;20451;-64
2022/10/04 05:46:33;;;;;;;50.70;35.05;;;;;;;12.88;90.83;101602.75;6278148;22;20024;-65
2022/10/04 05:49:12;;;;;;;27.23;21.10;;;;;;;12.94;92.44;101601.50;6252663;22;20059;-63
2022/10/04 05:52:01;;;;;;;35.05;22.10;;;;;;;12.95;92.36;101605.09;6277912;22;20027;-62
2022/10/04 05:54:31;;;;;;;30.40;19.70;;;;;;;12.99;92.61;101606.94;6252231;22;20019;-62
2022/10/04 05:57:14;;;;;;;30.30;19.33;;;;;;;12.82;92.72;101597.59;6251186;22;20027;-62
2022/10/04 05:59:45;;;;;;;31.95;20.10;;;;;;;12.80;91.86;101592.38;6251524;22;20039;-63
2022/10/04 06:02:36;;;;;;;33.47;20.77;;;;;;;12.89;92.86;101598.00;6251365;22;20319;-62
2022/10/04 06:05:16;;;;;;;30.20;20.63;;;;;;;12.85;93.09;101592.28;6250337;22;20015;-63
2022/10/04 06:07:49;;;;;;;31.05;20.30;;;;;;;12.87;93.01;101595.56;6278625;22;20026;-62
2022/10/04 06:10:35;;;;;;;29.85;20.05;;;;;;;12.99;93.60;101595.88;6250326;22;20026;-62
2022/10/04 06:13:14;;;;;;;33.42;19.45;;;;;;;12.95;93.19;101594.88;6278445;22;20026;-63
2022/10/04 06:15:50;;;;;;;39.35;25.92;;;;;;;12.73;92.27;101611.31;6251411;22;20015;-63
2022/10/04 06:18:38;;;;;;;40.20;28.50;;;;;;;12.89;93.23;101598.84;6250144;22;20019;-62
2022/10/04 06:21:17;;;;;;;35.78;22.75;;;;;;;13.02;93.75;101589.75;6224867;22;20025;-62
2022/10/04 06:23:58;;;;;;;30.88;20.40;;;;;;;12.85;92.75;101585.94;6277853;22;20035;-63
2022/10/04 06:26:32;;;;;;;33.95;19.30;;;;;;;12.17;87.63;101599.66;6277626;22;20015;-64
2022/10/04 06:29:02;;;;;;;32.33;20.25;;;;;;;11.85;91.22;101616.22;6251606;22;20026;-63
2022/10/04 06:31:43;;;;;;;32.15;20.10;;;;;;;12.29;95.39;101613.81;6250748;22;20016;-62
2022/10/04 06:34:24;;;;;;;31.13;21.10;;;;;;;12.42;94.70;101607.50;6222534;22;20019;-63
2022/10/04 06:37:16;;;;;;;27.55;19.60;;;;;;;12.32;94.96;101619.56;6250215;22;20019;-63
2022/10/04 06:40:11;;;;;;;24.63;18.05;;;;;;;12.47;96.05;101615.69;6251806;22;20019;-64
2022/10/04 06:43:13;;;;;;;31.13;22.38;;;;;;;12.39;93.53;101628.28;6274563;22;20016;-63
2022/10/04 06:45:57;;;;;;;36.60;19.35;;;;;;;11.98;95.10;101626.47;6181270;22;20020;-64
2022/10/04 06:48:24;;;;;;;27.40;19.73;;;;;;;12.30;96.88;101624.56;6275091;22;20023;-63
2022/10/04 06:51:04;;;;;;;33.05;19.42;;;;;;;12.69;96.31;101624.13;6274082;22;20020;-63
2022/10/04 06:53:53;;;;;;;23.88;18.02;;;;;;;12.99;96.06;101615.22;6249646;22;20020;-62
2022/10/04 06:56:30;;;;;;;33.10;23.38;;;;;;;13.32;95.52;101618.69;6275218;22;20012;-63
2022/10/04 06:59:13;;;;;;;27.63;19.95;;;;;;;13.27;94.12;101613.28;6275397;22;20055;-61
2022/10/04 07:01:53;;;;;;;32.00;20.67;;;;;;;13.30;95.37;101613.47;6247074;22;20019;-61
2022/10/04 07:04:26;;;;;;;29.25;17.92;;;;;;;13.32;96.13;101613.16;6248778;22;20034;-61
2022/10/04 07:09:59;;;;;;;27.60;17.30;;;;;;;13.31;91.45;101611.53;6275687;22;20455;-62
2022/10/04 07:12:26;;;;;;;29.88;18.10;;;;;;;13.24;89.56;101614.72;6249303;22;20026;-62
2022/10/04 07:14:59;;;;;;;27.88;17.48;;;;;;;13.30;89.71;101607.94;6248621;22;20046;-63
2022/10/04 07:17:32;;;;;;;25.73;18.17;;;;;;;13.34;89.29;101617.28;6276731;22;20031;-63
2022/10/04 07:20:00;;;;;;;34.13;21.30;;;;;;;13.41;88.36;101625.16;6247489;22;20022;-61
2022/10/04 07:22:33;;;;;;;29.17;19.27;;;;;;;13.41;87.40;101625.16;6248608;22;20020;-62
2022/10/04 07:25:07;;;;;;;29.45;17.75;;;;;;;13.27;85.35;101621.59;6277180;22;20020;-63
2022/10/04 07:31:02;;;;;;;27.63;17.08;;;;;;;13.05;87.02;101630.63;6274445;22;20470;-62
2022/10/04 07:33:42;;;;;;;27.52;17.67;;;;;;;13.25;85.75;101621.09;6275925;22;20026;-62
2022/10/04 07:36:12;;;;;;;31.02;18.38;;;;;;;13.34;85.27;101621.97;6248472;22;20023;-61
2022/10/04 07:39:00;;;;;;;;;;;;;;;13.38;84.77;101634.06;6222138;22;20031;-62
2022/10/04 07:41:34;;;;;;;29.55;18.40;;;;;;;13.47;83.92;101627.53;6250234;22;20363;-62
2022/10/04 07:44:38;;;;;;;26.90;17.67;;;;;;;13.50;83.86;101620.53;6213985;23;20425;-63
2022/10/04 07:47:18;;;;;;;24.55;16.52;;;;;;;13.56;83.84;101630.38;6124080;23;20018;-62
2022/10/04 07:49:49;;;;;;;27.90;17.27;;;;;;;13.62;83.21;101625.50;6207440;23;20031;-62
2022/10/04 07:52:47;;;;;;;25.52;17.80;;;;;;;13.56;82.51;101625.63;6188440;23;20051;-62
2022/10/04 07:55:20;;;;;;;26.75;17.50;;;;;;;13.37;84.11;101624.94;6214096;23;20567;-61
2022/10/04 07:58:06;;;;;;;27.90;18.50;;;;;;;13.44;84.11;101627.31;6215971;23;20031;-63
2022/10/04 08:00:43;;;;;;;25.38;16.73;;;;;;;13.57;83.82;101632.00;6211357;23;20031;-62
2022/10/04 08:03:28;;;;;;;26.75;17.42;;;;;;;13.62;83.43;101626.34;6209889;23;20475;-61
2022/10/04 08:06:05;;;;;;;33.17;21.42;;;;;;;13.72;83.33;101617.78;6187300;23;20040;-62
2022/10/04 08:08:50;;;;;;;31.00;18.60;;;;;;;13.53;82.79;101620.72;6215759;23;20016;-62
2022/10/04 08:11:36;;;;;;;25.83;17.85;;;;;;;13.71;83.40;101612.56;6213195;23;20020;-62
2022/10/04 08:14:41;;;;;;;28.85;17.40;;;;;;;13.79;83.30;101612.63;6214035;23;20024;-63
2022/10/04 08:17:14;;;;;;;38.60;17.75;;;;;;;13.77;82.67;101616.88;6210591;23;20028;-62
2022/10/04 08:20:22;;;;;;;27.88;16.42;;;;;;;13.71;83.30;101618.09;6212599;23;20028;-61
2022/10/04 08:23:14;;;;;;;33.58;18.08;;;;;;;12.96;85.92;101621.38;6217326;23;20023;-62
2022/10/04 08:25:48;;;;;;;27.52;17.67;;;;;;;13.43;85.64;101611.81;6213503;23;20027;-61
2022/10/04 08:32:03;;;;;;;27.35;17.38;;;;;;;13.77;84.04;101617.69;6213974;23;20025;-62
2022/10/04 08:34:35;;;;;;;25.42;17.65;;;;;;;13.85;82.98;101616.09;6217137;23;20023;-62
2022/10/04 08:37:27;;;;;;;27.90;17.10;;;;;;;13.93;82.65;101616.19;6216515;23;20013;-62
2022/10/04 08:40:09;;;;;;;23.83;16.70;;;;;;;13.93;81.67;101634.75;6214192;23;20372;-61
2022/10/04 08:43:01;;;;;;;23.40;16.75;;;;;;;14.04;82.13;101636.13;6242613;22;20020;-62
2022/10/04 08:45:36;;;;;;;31.98;17.90;;;;;;;14.09;81.66;101636.84;6274706;22;20016;-62
2022/10/04 08:48:45;;;;;;;27.50;18.50;;;;;;;14.05;82.31;101644.13;6275935;22;20019;-62
2022/10/04 08:51:34;;;;;;;29.45;18.70;;;;;;;14.01;81.06;101642.31;6277524;22;20015;-62
2022/10/04 08:54:36;;;;;;;24.13;16.65;;;;;;;13.97;80.47;101646.84;6273566;22;20341;-61
2022/10/04 08:57:09;;;;;;;21.33;17.52;;;;;;;14.00;82.42;101646.22;6204759;22;20335;-62
2022/10/04 09:00:07;;;;;;;24.25;16.95;;;;;;;14.15;81.82;101645.84;6276803;22;20020;-60
2022/10/04 09:02:53;;;;;;;29.13;18.55;;;;;;;14.27;81.63;101644.19;6277096;22;20020;-61
2022/10/04 09:05:44;;;;;;;28.83;17.27;;;;;;;14.16;81.24;101641.94;6278665;22;20019;-62
2022/10/04 09:08:49;;;;;;;26.50;18.48;;;;;;;14.36;81.05;101645.06;6223050;22;20030;-62
2022/10/04 09:11:40;;;;;;;25.35;16.88;;;;;;;14.50;80.69;101647.75;6276506;22;20102;-60
2022/10/04 09:14:26;;;;;;;27.60;17.23;;;;;;;14.48;80.39;101642.53;6199742;22;20709;-62
2022/10/04 09:17:16;;;;;;;25.83;17.98;;;;;;;14.60;80.38;101642.75;6277558;22;20016;-61
2022/10/04 09:19:58;;;;;;;29.40;20.60;;;;;;;14.60;80.05;101648.31;6277659;22;20020;-61
2022/10/04 09:22:47;;;;;;;29.33;18.58;;;;;;;14.51;80.76;101644.66;6256674;22;20027;-64
2022/10/04 09:25:22;;;;;;;37.47;19.52;;;;;;;14.55;81.01;101647.63;6277111;22;20012;-62
2022/10/04 09:27:58;;;;;;;30.13;19.25;;;;;;;14.70;80.67;101649.97;6277114;22;20578;-62
2022/10/04 09:30:42;;;;;;;25.55;19.15;;;;;;;14.77;80.33;101652.31;6248799;22;20024;-61
2022/10/04 09:33:25;;;;;;;29.90;17.88;;;;;;;14.81;79.32;101650.53;6225694;22;20019;-62
2022/10/04 09:36:30;;;;;;;32.10;19.67;;;;;;;14.63;79.81;101639.34;6223689;22;20609;-61
2022/10/04 09:39:16;;;;;;;28.33;20.42;;;;;;;13.99;82.00;101641.81;6206717;22;20020;-62
2022/10/04 09:42:07;;;;;;;31.90;20.27;;;;;;;14.34;82.31;101627.94;6249151;22;20030;-63
2022/10/04 09:44:55;;;;;;;26.75;20.17;;;;;;;14.58;81.63;101619.25;6275372;22;20026;-62
2022/10/04 09:47:44;;;;;;;28.85;20.15;;;;;;;14.82;80.21;101610.56;6247970;22;20464;-63
2022/10/04 09:50:34;;;;;;;28.35;18.42;;;;;;;14.78;80.42;101612.34;6278135;22;20023;-61
2022/10/04 09:53:05;;;;;;;31.80;19.98;;;;;;;14.69;80.50;101603.97;6252756;22;20016;-61
2022/10/04 09:55:45;;;;;;;27.38;19.60;;;;;;;14.87;80.94;101616.78;6250447;22;20016;-61
2022/10/04 09:58:28;;;;;;;;;;;;;;;14.96;79.89;101616.84;6277762;22;20011;-62
2022/10/04 10:01:15;;;;;;;26.70;19.60;;;;;;;15.09;79.22;101627.81;6251657;22;19915;-62
2022/10/04 10:04:07;;;;;;;26.98;20.45;;;;;;;15.05;79.63;101626.81;6278832;22;20016;-61
2022/10/04 10:06:45;;;;;;;29.95;20.55;;;;;;;15.16;79.04;101614.28;6251744;22;20019;-62
2022/10/04 10:13:38;;;;;;;26.60;18.58;;;;;;;15.20;78.67;101615.25;6250459;22;20020;-61
2022/10/04 10:15:16;;;;;;;27.50;19.77;;;;;;;14.95;79.06;101616.00;6250079;22;20354;-63
2022/10/04 10:18:14;;;;;;;28.40;17.85;;;;;;;15.21;79.51;101608.56;6277429;22;20020;-62
2022/10/04 10:21:05;;;;;;;22.30;16.55;;;;;;;15.35;78.84;101598.16;6276871;22;20034;-61
2022/10/04 10:23:44;;;;;;;23.83;17.33;;;;;;;15.29;78.18;101595.88;6226710;22;20027;-63
2022/10/04 10:26:36;;;;;;;21.35;15.98;;;;;;;15.42;78.96;101583.81;6277999;22;20029;-61
2022/10/04 10:29:41;;;;;;;23.35;15.77;;;;;;;15.29;78.58;101585.56;6225510;22;20023;-61
2022/10/04 10:32:32;;;;;;;29.58;16.23;;;;;;;15.41;78.89;101584.97;6250873;22;20016;-62
2022/10/04 10:35:12;;;;;;;26.27;16.02;;;;;;;15.69;78.84;101577.97;6278350;22;20030;-63
2022/10/04 10:38:19;;;;;;;28.75;18.60;;;;;;;15.67;78.11;101569.16;6250391;22;20019;-62
2022/10/04 10:40:57;;;;;;;22.73;16.33;;;;;;;15.58;78.23;101566.38;6277876;22;20122;-63
2022/10/04 10:43:49;;;;;;;24.60;17.33;;;;;;;15.89;78.37;101573.69;6224366;22;20024;-65
2022/10/04 10:46:38;;;;;;;29.08;17.08;;;;;;;15.92;78.48;101573.84;6224497;22;20027;-65
2022/10/04 10:49:22;;;;;;;27.25;18.52;;;;;;;15.70;77.92;101579.59;6277024;22;20031;-63
2022/10/04 10:52:09;;;;;;;24.25;17.42;;;;;;;15.93;78.30;101574.69;6222380;22;20030;-63
2022/10/04 10:55:07;;;;;;;24.52;16.08;;;;;;;16.09;78.29;101570.25;6276386;22;20023;-63
2022/10/04 10:57:47;;;;;;;30.23;16.38;;;;;;;15.83;76.95;101561.13;6249802;22;20022;-63
2022/10/04 11:00:29;;;;;;;21.10;15.43;;;;;;;15.63;77.88;101568.97;6249519;22;20019;-63
2022/10/04 11:03:12;;;;;;;33.33;16.80;;;;;;;15.83;78.10;101569.47;6250338;22;20023;-63
2022/10/04 11:06:07;;;;;;;25.58;17.08;;;;;;;15.94;77.44;101568.78;6227794;22;20015;-63
2022/10/04 11:09:23;;;;;;;26.98;17.60;;;;;;;16.10;76.52;101567.16;6249234;22;20031;-65
2022/10/04 11:12:04;;;;;;;24.60;17.77;;;;;;;16.21;78.50;101573.19;6218911;22;20019;-68
2022/10/04 11:15:14;;;;;;;29.67;16.17;;;;;;;16.34;79.93;101566.59;6247697;22;20062;-63
2022/10/04 11:18:08;;;;;;;23.23;16.05;;;;;;;16.53;80.97;101578.16;6247075;22;20027;-63
2022/10/04 11:21:13;;;;;;;22.83;14.88;;;;;;;16.78;79.93;101577.25;6248049;22;20030;-63
2022/10/04 11:24:12;;;;;;;23.58;15.07;;;;;;;16.86;78.00;101570.84;6275937;22;20042;-62
2022/10/04 11:27:04;;;;;;;24.13;16.05;;;;;;;16.88;76.15;101572.13;6275079;22;20016;-62
2022/10/04 11:30:01;;;;;;;25.25;17.27;;;;;;;16.86;74.61;101568.88;6247611;22;20028;-62
2022/10/04 11:33:08;;;;;;;29.58;17.40;;;;;;;16.99;75.43;101575.38;6276146;22;20019;-63
2022/10/04 11:35:44;;;;;;;24.88;18.08;;;;;;;16.93;75.12;101581.47;6277598;22;20024;-68
2022/10/04 11:38:30;;;;;;;19.33;14.25;;;;;;;16.91;73.92;101584.59;6277411;22;20012;-67
2022/10/04 11:41:09;;;;;;;22.67;14.43;;;;;;;16.96;73.89;101580.78;6277312;22;20012;-67
2022/10/04 11:44:14;;;;;;;19.67;12.27;;;;;;;16.98;74.18;101578.50;6276387;22;20030;-68
2022/10/04 11:47:07;;;;;;;21.55;11.70;;;;;;;17.11;72.94;101580.19;6276312;22;20290;-67
2022/10/04 11:49:56;;;;;;;17.38;11.07;;;;;;;17.14;71.82;101572.00;6276794;22;20023;-68
2022/10/04 11:52:42;;;;;;;20.27;12.50;;;;;;;17.02;72.32;101580.25;6248047;22;20022;-67
2022/10/04 11:55:37;;;;;;;18.73;12.55;;;;;;;17.03;72.48;101579.13;6277332;22;20023;-68
2022/10/04 11:58:12;;;;;;;17.70;11.68;;;;;;;17.06;72.34;101572.88;6224213;22;20342;-67
2022/10/04 12:00:45;;;;;;;21.27;11.73;;;;;;;17.52;71.58;101567.16;6247173;22;20023;-68
2022/10/04 12:03:27;;;;;;;18.80;11.40;;;;;;;17.33;70.40;101560.44;6278061;22;20019;-67
2022/10/04 12:06:21;;;;;;;21.58;12.57;;;;;;;17.27;71.36;101558.97;6275608;22;20020;-66
2022/10/04 12:09:04;;;;;;;16.30;10.38;;;;;;;17.46;71.08;101560.19;6250274;22;20019;-65
2022/10/04 12:14:37;;;;;;;18.48;9.18;;;;;;;17.85;69.58;101565.25;6264344;22;20019;-66
2022/10/04 12:17:23;;;;;;;14.77;8.52;;;;;;;17.73;69.00;101562.41;6274483;22;20024;-66
2022/10/04 12:20:39;;;;;;;15.68;9.23;;;;;;;17.74;68.95;101566.03;6249495;22;20034;-66
2022/10/04 12:23:10;;;;;;;14.45;8.93;;;;;;;17.79;68.96;101571.38;6267343;22;20024;-66
2022/10/04 12:26:07;;;;;;;13.88;7.80;;;;;;;17.79;68.61;101572.22;6276790;22;20371;-66
2022/10/04 12:28:53;;;;;;;11.43;6.75;;;;;;;18.16;67.87;101566.78;6223956;22;20550;-66
2022/10/04 12:31:34;;;;;;;10.73;6.00;;;;;;;18.26;67.09;101560.75;6274543;22;20023;-66